createdAt,value
2022-12-12T00:02:08.793Z,6.15
2022-12-12T00:04:41.219Z,9.23
2022-12-12T00:07:13.571Z,7.38
2022-12-12T00:09:45.894Z,11.98
2022-12-12T00:12:18.525Z,11.38
2022-12-12T00:14:51.500Z,12.43
2022-12-12T00:17:23.851Z,14.00
2022-12-12T00:19:56.183Z,12.07
2022-12-12T00:22:28.534Z,7.60
2022-12-12T00:25:00.870Z,6.53
2022-12-12T00:27:33.794Z,7.68
2022-12-12T00:30:08.270Z,9.85
2022-12-12T00:32:40.597Z,7.03
2022-12-12T00:35:13.370Z,12.63
2022-12-12T00:37:45.852Z,8.95
2022-12-12T00:40:18.245Z,8.55
2022-12-12T00:42:50.525Z,11.32
2022-12-12T00:45:23.581Z,8.40
2022-12-12T00:47:55.914Z,6.53
2022-12-12T00:50:28.242Z,9.60
2022-12-12T00:53:00.935Z,7.43
2022-12-12T00:55:33.312Z,10.70
2022-12-12T00:58:05.822Z,8.65
2022-12-12T01:00:40.628Z,15.68
2022-12-12T01:03:13.040Z,13.57
2022-12-12T01:05:45.650Z,14.88
2022-12-12T01:08:18.112Z,24.17
2022-12-12T01:10:50.551Z,23.33
2022-12-12T01:13:23.101Z,14.20
2022-12-12T01:15:56.202Z,16.27
2022-12-12T01:18:28.607Z,11.23
2022-12-12T01:21:01.021Z,19.38
2022-12-12T01:23:33.461Z,14.35
2022-12-12T01:26:09.109Z,12.63
2022-12-12T01:28:42.300Z,11.60
2022-12-12T01:31:15.941Z,9.57
2022-12-12T01:33:48.353Z,21.77
2022-12-12T01:36:23.114Z,20.23
2022-12-12T01:38:56.745Z,14.13
2022-12-12T01:41:29.093Z,7.82
2022-12-12T01:44:02.624Z,22.75
2022-12-12T01:46:42.314Z,20.40
2022-12-12T01:49:18.849Z,15.55
2022-12-12T01:51:55.370Z,5.60
2022-12-12T01:54:31.101Z,11.05
2022-12-12T01:57:07.938Z,7.60
2022-12-12T01:59:41.005Z,3.08
2022-12-12T02:02:14.232Z,9.05
2022-12-12T02:04:46.652Z,4.28
2022-12-12T02:07:19.041Z,7.10
2022-12-12T02:09:51.511Z,5.93
2022-12-12T02:12:23.872Z,3.30
2022-12-12T02:14:56.428Z,9.15
2022-12-12T02:17:46.764Z,4.32
2022-12-12T02:20:42.147Z,4.13
2022-12-12T02:23:55.756Z,5.60
2022-12-12T02:27:04.098Z,8.00
2022-12-12T02:30:01.945Z,9.77
2022-12-12T02:32:50.296Z,9.57
2022-12-12T02:35:33.630Z,9.70
2022-12-12T02:38:14.251Z,11.60
2022-12-12T02:40:56.169Z,11.52
2022-12-12T02:43:36.136Z,14.77
2022-12-12T02:46:15.535Z,10.68
2022-12-12T02:48:53.586Z,9.98
2022-12-12T02:51:27.464Z,6.95
2022-12-12T02:54:00.461Z,9.90
2022-12-12T02:56:51.471Z,7.18
2022-12-12T02:59:27.636Z,8.27
2022-12-12T03:02:31.724Z,6.10
2022-12-12T03:05:37.824Z,8.38
2022-12-12T03:08:24.231Z,11.93
2022-12-12T03:11:01.383Z,18.15
2022-12-12T03:13:43.277Z,13.38
2022-12-12T03:16:27.358Z,14.95
2022-12-12T03:19:08.397Z,14.27
2022-12-12T03:22:07.179Z,12.50
2022-12-12T03:24:48.758Z,8.37
2022-12-12T03:27:26.834Z,13.90
2022-12-12T03:30:03.322Z,23.05
2022-12-12T03:32:41.033Z,13.63
2022-12-12T03:35:18.235Z,11.93
2022-12-12T03:37:56.552Z,15.40
2022-12-12T03:40:33.253Z,19.20
2022-12-12T03:43:09.959Z,12.40
2022-12-12T03:45:48.083Z,16.55
2022-12-12T03:48:27.169Z,6.40
2022-12-12T03:51:04.501Z,9.32
2022-12-12T03:53:44.509Z,10.85
2022-12-12T03:56:20.964Z,12.48
2022-12-12T03:58:57.296Z,18.17
2022-12-12T04:01:36.254Z,15.70
2022-12-12T04:04:13.988Z,11.38
2022-12-12T04:06:51.231Z,10.75
2022-12-12T04:09:42.435Z,9.30
2022-12-12T04:12:37.362Z,10.73
2022-12-12T04:15:46.140Z,7.13
2022-12-12T04:18:30.567Z,13.63
2022-12-12T04:21:33.408Z,9.75
2022-12-12T04:24:17.180Z,8.48
2022-12-12T04:26:56.464Z,13.50
2022-12-12T04:29:37.305Z,6.88
2022-12-12T04:32:18.227Z,8.18
2022-12-12T04:34:57.641Z,7.57
2022-12-12T04:37:35.852Z,6.15
2022-12-12T04:40:12.720Z,8.68
2022-12-12T04:42:52.642Z,5.15
2022-12-12T04:45:30.827Z,14.85
2022-12-12T04:48:07.983Z,7.15
2022-12-12T04:51:30.044Z,13.73
2022-12-12T04:54:09.648Z,11.35
2022-12-12T04:56:45.071Z,7.50
2022-12-12T04:59:18.664Z,12.13
2022-12-12T05:01:55.264Z,8.02
2022-12-12T05:04:33.189Z,8.93
2022-12-12T05:07:12.031Z,8.57
2022-12-12T05:09:44.765Z,9.90
2022-12-12T05:12:17.302Z,9.68
2022-12-12T05:14:50.426Z,9.27
2022-12-12T05:17:30.789Z,15.77
2022-12-12T05:20:05.219Z,12.85
2022-12-12T05:22:37.737Z,9.32
2022-12-12T05:25:10.937Z,17.52
2022-12-12T05:27:43.470Z,11.18
2022-12-12T05:30:16.909Z,21.15
2022-12-12T05:32:49.282Z,12.77
2022-12-12T05:35:22.125Z,21.08
2022-12-12T05:37:54.543Z,18.88
2022-12-12T05:40:26.884Z,18.33
2022-12-12T05:42:59.239Z,11.60
2022-12-12T05:45:32.281Z,11.35
2022-12-12T05:48:05.009Z,15.27
2022-12-12T05:50:37.403Z,16.92
2022-12-12T05:53:09.822Z,26.25
2022-12-12T05:55:42.182Z,10.57
2022-12-12T05:58:14.509Z,12.10
2022-12-12T06:00:48.412Z,15.93
2022-12-12T06:03:20.897Z,11.98
2022-12-12T06:05:53.220Z,9.45
2022-12-12T06:08:26.020Z,11.25
2022-12-12T06:10:58.494Z,10.23
2022-12-12T06:13:30.859Z,9.70
2022-12-12T06:16:07.058Z,6.88
2022-12-12T06:18:39.390Z,12.32
2022-12-12T06:21:12.994Z,8.88
2022-12-12T06:23:45.375Z,14.07
2022-12-12T06:26:19.994Z,14.85
2022-12-12T06:28:52.395Z,12.82
2022-12-12T06:31:25.792Z,7.15
2022-12-12T06:33:58.197Z,8.43
2022-12-12T06:36:30.548Z,9.77
2022-12-12T06:39:03.649Z,9.38
2022-12-12T06:41:36.181Z,11.23
2022-12-12T06:44:08.646Z,13.43
2022-12-12T06:46:42.040Z,11.90
2022-12-12T06:49:14.469Z,16.08
2022-12-12T06:51:48.077Z,18.05
2022-12-12T06:54:20.457Z,16.67
2022-12-12T06:56:52.815Z,18.70
2022-12-12T06:59:25.215Z,9.38
2022-12-12T07:01:58.413Z,9.68
2022-12-12T07:04:30.827Z,7.35
2022-12-12T07:07:03.215Z,10.20
2022-12-12T07:09:36.003Z,8.45
2022-12-12T07:12:08.376Z,18.55
2022-12-12T07:14:40.725Z,14.52
2022-12-12T07:17:13.785Z,5.75
2022-12-12T07:19:46.123Z,8.05
2022-12-12T07:22:18.640Z,9.98
2022-12-12T07:24:51.891Z,14.68
2022-12-12T07:27:24.275Z,16.25
2022-12-12T07:29:56.618Z,10.38
2022-12-12T07:32:29.670Z,11.50
2022-12-12T07:35:02.048Z,10.48
2022-12-12T07:37:34.428Z,7.70
2022-12-12T07:40:07.807Z,8.63
2022-12-12T07:42:40.235Z,19.23
2022-12-12T07:45:31.931Z,7.32
2022-12-12T07:48:07.621Z,19.30
2022-12-12T07:50:40.194Z,8.90
2022-12-12T07:53:12.580Z,12.38
2022-12-12T07:55:44.959Z,12.80
2022-12-12T07:58:17.349Z,11.65
2022-12-12T08:00:49.776Z,12.02
2022-12-12T08:03:22.768Z,10.82
2022-12-12T08:05:55.068Z,10.40
2022-12-12T08:08:27.486Z,15.50
2022-12-12T08:10:59.929Z,21.02
2022-12-12T08:13:33.957Z,18.17
2022-12-12T08:16:12.015Z,23.80
2022-12-12T08:18:45.644Z,17.45
2022-12-12T08:21:24.788Z,16.10
2022-12-12T08:23:59.123Z,13.60
2022-12-12T08:26:31.783Z,18.67
2022-12-12T08:29:04.723Z,20.27
2022-12-12T08:31:37.943Z,19.10
2022-12-12T08:34:11.308Z,22.63
2022-12-12T08:36:44.922Z,26.10
2022-12-12T08:39:17.347Z,16.10
2022-12-12T08:41:49.937Z,15.70
2022-12-12T08:44:22.321Z,13.88
2022-12-12T08:46:55.036Z,21.40
2022-12-12T08:49:28.148Z,14.30
2022-12-12T08:52:00.493Z,21.15
2022-12-12T08:54:32.834Z,14.63
2022-12-12T08:57:05.248Z,11.20
2022-12-12T08:59:37.605Z,13.00
2022-12-12T09:02:11.869Z,12.15
2022-12-12T09:04:45.032Z,10.73
2022-12-12T09:07:17.499Z,12.13
2022-12-12T09:09:49.869Z,14.70
2022-12-12T09:12:22.260Z,16.67
2022-12-12T09:14:54.585Z,36.30
2022-12-12T09:17:26.957Z,25.98
2022-12-12T09:19:59.957Z,11.30
2022-12-12T09:22:32.534Z,10.05
2022-12-12T09:25:05.675Z,10.10
2022-12-12T09:27:38.018Z,13.88
2022-12-12T09:30:11.242Z,12.27
2022-12-12T09:32:44.444Z,18.13
2022-12-12T09:35:17.814Z,38.15
2022-12-12T09:37:50.201Z,21.23
2022-12-12T09:40:29.536Z,15.20
2022-12-12T09:43:02.531Z,23.67
2022-12-12T09:45:38.358Z,19.30
2022-12-12T09:48:17.193Z,16.90
2022-12-12T09:50:50.386Z,20.17
2022-12-12T09:53:25.478Z,26.02
2022-12-12T09:56:03.176Z,20.52
2022-12-12T09:58:46.820Z,18.60
2022-12-12T10:01:26.910Z,25.10
2022-12-12T10:04:10.367Z,17.05
2022-12-12T10:06:47.042Z,14.65
2022-12-12T10:09:35.846Z,16.90
2022-12-12T10:12:13.709Z,15.60
2022-12-12T10:14:50.634Z,17.33
2022-12-12T10:17:27.960Z,13.73
2022-12-12T10:20:04.753Z,16.65
2022-12-12T10:22:42.768Z,24.85
2022-12-12T10:25:21.059Z,18.02
2022-12-12T10:27:55.141Z,20.73
2022-12-12T10:30:31.990Z,20.40
2022-12-12T10:33:15.896Z,14.77
2022-12-12T10:35:54.155Z,9.00
2022-12-12T10:38:47.505Z,14.27
2022-12-12T10:41:30.793Z,12.18
2022-12-12T10:44:09.479Z,15.57
2022-12-12T10:46:45.527Z,8.20
2022-12-12T10:49:20.858Z,10.20
2022-12-12T10:51:55.354Z,8.40
2022-12-12T10:54:32.024Z,21.25
2022-12-12T10:57:08.506Z,12.02
2022-12-12T10:59:43.164Z,13.52
2022-12-12T11:02:27.325Z,15.05
2022-12-12T11:05:09.782Z,16.92
2022-12-12T11:07:44.974Z,10.43
2022-12-12T11:10:31.985Z,20.52
2022-12-12T11:13:15.620Z,19.33
2022-12-12T11:15:51.710Z,16.80
2022-12-12T11:18:24.791Z,17.48
2022-12-12T11:21:06.442Z,17.92
2022-12-12T11:23:41.311Z,15.35
2022-12-12T11:26:18.628Z,14.02
2022-12-12T11:28:57.831Z,16.75
2022-12-12T11:31:33.973Z,15.00
2022-12-12T11:34:06.869Z,11.52
2022-12-12T11:36:41.410Z,15.50
2022-12-12T11:39:16.451Z,16.10
2022-12-12T11:42:01.023Z,15.48
2022-12-12T11:44:35.778Z,13.82
2022-12-12T11:47:29.577Z,18.92
2022-12-12T11:50:04.966Z,22.77
2022-12-12T11:52:41.149Z,16.63
2022-12-12T11:55:16.592Z,23.73
2022-12-12T11:58:14.357Z,17.67
2022-12-12T12:00:59.529Z,17.73
2022-12-12T12:03:54.816Z,19.08
2022-12-12T12:06:38.169Z,13.68
2022-12-12T12:09:25.036Z,18.42
2022-12-12T12:12:06.472Z,23.50
2022-12-12T12:15:01.974Z,21.15
2022-12-12T12:17:57.817Z,23.70
2022-12-12T12:20:43.428Z,21.27
2022-12-12T12:23:23.640Z,21.35
2022-12-12T12:26:03.525Z,21.90
2022-12-12T12:29:01.466Z,20.48
2022-12-12T12:31:43.600Z,32.83
2022-12-12T12:34:23.702Z,24.05
2022-12-12T12:37:09.262Z,28.75
2022-12-12T12:39:59.618Z,33.25
2022-12-12T12:42:50.004Z,26.17
2022-12-12T12:45:29.463Z,28.50
2022-12-12T12:48:10.871Z,28.40
2022-12-12T12:50:47.265Z,20.13
2022-12-12T12:53:28.884Z,27.90
2022-12-12T12:56:08.653Z,29.33
2022-12-12T12:58:46.787Z,28.25
2022-12-12T13:01:24.588Z,30.92
2022-12-12T13:04:02.488Z,25.80
2022-12-12T13:06:43.533Z,30.88
2022-12-12T13:09:25.125Z,32.20
2022-12-12T13:12:05.210Z,31.38
2022-12-12T13:14:45.168Z,40.05
2022-12-12T13:17:21.566Z,29.67
2022-12-12T13:19:57.342Z,36.55
2022-12-12T13:22:46.311Z,33.08
2022-12-12T13:25:30.515Z,32.85
2022-12-12T13:28:07.517Z,29.50
2022-12-12T13:30:54.982Z,34.08
2022-12-12T13:33:37.693Z,31.90
2022-12-12T13:36:16.653Z,35.53
2022-12-12T13:38:51.532Z,36.45
2022-12-12T13:41:23.930Z,34.58
2022-12-12T13:43:57.904Z,31.60
2022-12-12T13:46:40.834Z,29.05
2022-12-12T13:49:34.024Z,35.63
2022-12-12T13:52:25.195Z,36.58
2022-12-12T13:55:19.063Z,35.15
2022-12-12T13:58:15.994Z,31.25
2022-12-12T14:00:48.544Z,36.72
2022-12-12T14:03:29.872Z,31.73
2022-12-12T14:06:18.656Z,30.05
2022-12-12T14:08:53.371Z,27.70
2022-12-12T14:11:30.456Z,32.40
2022-12-12T14:14:22.170Z,32.05
2022-12-12T14:16:56.332Z,30.13
2022-12-12T14:19:34.386Z,34.90
2022-12-12T14:22:06.918Z,28.05
2022-12-12T14:24:58.607Z,24.65
2022-12-12T14:28:10.582Z,17.58
2022-12-12T14:30:57.571Z,17.05
2022-12-12T14:34:08.279Z,15.65
2022-12-12T14:37:11.481Z,18.35
2022-12-12T14:39:55.602Z,16.38
2022-12-12T14:43:20.264Z,17.20
2022-12-12T14:45:36.564Z,16.17
2022-12-12T14:48:11.014Z,29.70
2022-12-12T14:50:47.430Z,28.52
2022-12-12T14:53:24.249Z,29.38
2022-12-12T14:56:00.129Z,37.75
2022-12-12T14:58:36.772Z,40.97
2022-12-12T15:01:09.642Z,33.13
2022-12-12T15:03:46.066Z,39.17
2022-12-12T15:06:30.252Z,29.25
2022-12-12T15:09:24.844Z,41.72
2022-12-12T15:12:13.317Z,34.63
2022-12-12T15:14:54.997Z,30.40
2022-12-12T15:17:29.554Z,31.23
2022-12-12T15:20:05.430Z,32.97
2022-12-12T15:22:48.127Z,32.28
2022-12-12T15:25:23.263Z,26.85
2022-12-12T15:27:56.804Z,30.73
2022-12-12T15:30:32.807Z,24.50
2022-12-12T15:33:08.042Z,32.80
2022-12-12T15:35:48.924Z,24.75
2022-12-12T15:38:21.681Z,20.85
2022-12-12T15:40:57.690Z,29.15
2022-12-12T15:43:31.282Z,17.75
2022-12-12T15:46:13.305Z,24.15
2022-12-12T15:48:48.268Z,20.73
2022-12-12T15:51:24.997Z,27.27
2022-12-12T15:53:58.904Z,24.17
2022-12-12T15:56:31.321Z,24.83
2022-12-12T15:59:15.803Z,27.27
2022-12-12T16:01:48.203Z,26.15
2022-12-12T16:04:24.192Z,22.20
2022-12-12T16:07:19.986Z,18.35
2022-12-12T16:10:00.187Z,14.50
2022-12-12T16:12:55.150Z,9.25
2022-12-12T16:15:37.717Z,11.07
2022-12-12T16:18:17.277Z,10.68
2022-12-12T16:20:51.518Z,11.20
2022-12-12T16:23:28.625Z,9.25
2022-12-12T16:26:00.988Z,10.40
2022-12-12T16:28:33.480Z,13.40
2022-12-12T16:31:15.466Z,10.85
2022-12-12T16:33:48.836Z,7.38
2022-12-12T16:36:21.407Z,10.30
2022-12-12T16:38:53.774Z,7.53
2022-12-12T16:41:26.607Z,7.07
2022-12-12T16:43:59.206Z,9.82
2022-12-12T16:46:32.266Z,7.60
2022-12-12T16:49:05.123Z,5.93
2022-12-12T16:51:40.662Z,6.82
2022-12-12T16:54:16.481Z,8.68
2022-12-12T16:56:51.883Z,5.72
2022-12-12T16:59:24.294Z,5.43
2022-12-12T17:01:57.305Z,8.52
2022-12-12T17:04:31.524Z,5.28
2022-12-12T17:07:07.283Z,6.57
2022-12-12T17:09:39.796Z,5.53
2022-12-12T17:12:12.452Z,6.40
2022-12-12T17:14:44.853Z,7.22
2022-12-12T17:17:18.216Z,3.80
2022-12-12T17:19:50.697Z,8.52
2022-12-12T17:22:23.127Z,7.30
2022-12-12T17:24:55.501Z,4.63
2022-12-12T17:27:27.827Z,3.22
2022-12-12T17:30:00.338Z,4.47
2022-12-12T17:32:33.896Z,4.07
2022-12-12T17:35:07.742Z,7.05
2022-12-12T17:37:40.114Z,2.47
2022-12-12T17:40:13.087Z,2.78
2022-12-12T17:42:45.690Z,3.63
2022-12-12T17:45:18.681Z,3.05
2022-12-12T17:47:51.908Z,2.50
2022-12-12T17:50:24.212Z,4.50
2022-12-12T17:52:56.606Z,3.03
2022-12-12T17:55:53.473Z,2.05
2022-12-12T17:58:23.891Z,5.78
2022-12-12T18:01:00.687Z,1.63
2022-12-12T18:03:34.601Z,2.08
2022-12-12T18:06:07.963Z,4.18
2022-12-12T18:08:40.934Z,0.80
2022-12-12T18:11:15.941Z,5.88
2022-12-12T18:13:48.285Z,5.20
2022-12-12T18:16:22.874Z,1.42
2022-12-12T18:18:56.490Z,0.40
2022-12-12T18:24:24.733Z,1.88
2022-12-12T18:26:58.526Z,1.25
2022-12-12T18:29:31.566Z,3.92
2022-12-12T18:32:04.989Z,8.13
2022-12-12T18:34:38.049Z,8.65
2022-12-12T18:37:10.659Z,2.55
2022-12-12T18:39:43.203Z,2.47
2022-12-12T18:42:15.607Z,10.68
2022-12-12T18:44:48.505Z,6.28
2022-12-12T18:47:21.034Z,0.85
2022-12-12T18:49:54.080Z,3.05
2022-12-12T18:52:26.523Z,2.53
2022-12-12T18:54:58.914Z,10.13
2022-12-12T18:57:31.872Z,4.15
2022-12-12T19:00:06.669Z,3.70
2022-12-12T19:02:39.817Z,9.13
2022-12-12T19:05:13.798Z,9.05
2022-12-12T19:07:46.558Z,6.95
2022-12-12T19:10:19.035Z,3.40
2022-12-12T19:12:51.450Z,3.70
2022-12-12T19:15:23.793Z,4.15
2022-12-12T19:17:57.084Z,2.45
2022-12-12T19:20:30.366Z,2.08
2022-12-12T19:23:02.760Z,1.70
2022-12-12T19:25:42.353Z,1.52
2022-12-12T19:28:15.258Z,1.52
2022-12-12T19:30:47.926Z,0.40
2022-12-12T19:33:20.368Z,1.33
2022-12-12T19:35:53.387Z,1.52
2022-12-12T19:38:25.886Z,1.00
2022-12-12T19:41:02.601Z,0.98
2022-12-12T19:43:35.552Z,1.33
2022-12-12T19:46:11.135Z,3.47
2022-12-12T19:48:44.023Z,1.20
2022-12-12T19:51:19.669Z,3.63
2022-12-12T19:53:54.710Z,1.73
2022-12-12T19:56:29.485Z,2.33
2022-12-12T19:59:02.142Z,3.15
2022-12-12T20:01:36.279Z,1.05
2022-12-12T20:04:14.533Z,1.42
2022-12-12T20:06:48.702Z,2.08
2022-12-12T20:09:23.110Z,1.15
2022-12-12T20:11:56.784Z,1.55
2022-12-12T20:14:31.249Z,1.88
2022-12-12T20:17:03.867Z,0.55
2022-12-12T20:19:36.574Z,1.23
2022-12-12T20:22:09.654Z,1.33
2022-12-12T20:24:43.937Z,0.98
2022-12-12T20:27:16.314Z,2.22
2022-12-12T20:29:48.865Z,1.80
2022-12-12T20:32:23.512Z,1.52
2022-12-12T20:34:55.900Z,2.22
2022-12-12T20:37:30.767Z,2.80
2022-12-12T20:40:04.036Z,1.70
2022-12-12T20:42:36.350Z,1.45
2022-12-12T20:45:09.444Z,1.08
2022-12-12T20:47:41.851Z,1.33
2022-12-12T20:50:14.470Z,4.40
2022-12-12T20:52:47.534Z,2.38
2022-12-12T20:55:19.940Z,6.43
2022-12-12T20:57:52.339Z,1.88
2022-12-12T21:00:25.871Z,3.03
2022-12-12T21:02:58.220Z,3.20
2022-12-12T21:05:30.639Z,3.78
2022-12-12T21:08:03.981Z,2.47
2022-12-12T21:10:36.461Z,2.08
2022-12-12T21:13:08.923Z,2.88
2022-12-12T21:15:41.303Z,2.78
2022-12-12T21:18:13.653Z,5.35
2022-12-12T21:20:46.051Z,2.78
2022-12-12T21:23:20.237Z,3.42
2022-12-12T21:25:52.580Z,3.45
2022-12-12T21:28:24.912Z,4.10
2022-12-12T21:30:57.748Z,4.55
2022-12-12T21:33:30.093Z,4.97
2022-12-12T21:36:03.842Z,6.35
2022-12-12T21:38:37.643Z,7.55
2022-12-12T21:41:12.271Z,12.07
2022-12-12T21:43:44.826Z,14.02
2022-12-12T21:46:19.305Z,7.38
2022-12-12T21:49:07.528Z,13.45
2022-12-12T21:51:40.589Z,5.32
2022-12-12T21:54:15.271Z,28.85
2022-12-12T21:56:48.206Z,11.23
2022-12-12T21:59:20.671Z,6.00
2022-12-12T22:01:54.231Z,6.85
2022-12-12T22:04:27.555Z,5.53
2022-12-12T22:06:59.948Z,7.20
2022-12-12T22:09:32.925Z,7.28
2022-12-12T22:12:05.680Z,9.88
2022-12-12T22:14:38.129Z,4.00
2022-12-12T22:17:10.506Z,3.65
2022-12-12T22:19:42.863Z,8.73
2022-12-12T22:22:15.248Z,3.30
2022-12-12T22:24:48.292Z,13.77
2022-12-12T22:27:20.674Z,3.15
2022-12-12T22:29:53.029Z,3.85
2022-12-12T22:32:27.135Z,4.88
2022-12-12T22:34:59.436Z,3.40
2022-12-12T22:37:31.813Z,13.35
2022-12-12T22:40:06.282Z,5.20
2022-12-12T22:42:38.713Z,2.28
2022-12-12T22:45:11.435Z,4.10
2022-12-12T22:47:43.954Z,6.20
2022-12-12T22:50:16.523Z,2.88
2022-12-12T22:52:49.034Z,4.05
2022-12-12T22:55:22.017Z,1.95
2022-12-12T22:57:54.437Z,3.92
2022-12-12T23:00:26.846Z,12.25
2022-12-12T23:02:59.323Z,7.80
2022-12-12T23:05:31.782Z,3.83
2022-12-12T23:08:04.791Z,8.63
2022-12-12T23:10:38.025Z,3.47
2022-12-12T23:13:10.403Z,3.92
2022-12-12T23:15:42.732Z,3.78
2022-12-12T23:18:15.220Z,7.60
2022-12-12T23:20:47.582Z,3.60
2022-12-12T23:23:19.940Z,2.95
2022-12-12T23:25:53.435Z,5.18
2022-12-12T23:28:25.933Z,9.68
2022-12-12T23:30:58.487Z,7.53
2022-12-12T23:33:30.917Z,3.58
2022-12-12T23:36:03.604Z,6.95
2022-12-12T23:38:36.091Z,6.75
2022-12-12T23:41:11.294Z,11.40
2022-12-12T23:43:43.927Z,9.82
2022-12-12T23:46:27.605Z,5.72
2022-12-12T23:49:02.158Z,2.17
2022-12-12T23:51:36.854Z,2.92
2022-12-12T23:54:11.083Z,5.03
2022-12-12T23:56:44.958Z,6.40
2022-12-12T23:59:19.526Z,7.88
